Terminal Aerodrome Forecast
Issued by NWS Upton, NY

Home | Current Version | Previous Version | Text Only | Print | Product List | Glossary On
Versions: 1 2 3 4 5 6 7 8 9 10 11 12 13 14 15 16 17 18 19 20 21 22 23 24 25 26 27 28 29
000
FTUS41 KOKX 191300 AAB
TAFJFK
TAF AMD
KJFK 191307Z 1913/2018 05013KT P6SM FEW030 SCT080
     FM191500 04013KT P6SM FEW030 SCT050
     FM191800 08012KT P6SM SCT030
     FM192200 12011KT P6SM SCT035
     FM200600 14008KT P6SM SCT030
     FM200900 15006KT P6SM BKN030
     FM201500 17012KT P6SM BKN035=

USA.gov is the U.S. government's official web portal to all federal, state and local government web resources and services.